Time;durP1;ratioP1;P1;durP2;ratioP2;P2;SDS_P1;SDS_P2;PMS_P1;PMS_P2;Temp;Humidity;BMP_temperature;BMP_pressure;BME280_temperature;BME280_humidity;BME280_pressure;Samples;Min_cycle;Max_cycle;Signal;HPM_P1;HPM_P2
2021/08/09 00:01:34;;;;;;;27.98;7.32;;;17.80;99.90;;;;;;5007658;28;20218;-79
2021/08/09 00:04:01;;;;;;;25.27;6.95;;;17.80;99.90;;;;;;5007093;28;20238;-78
2021/08/09 00:06:28;;;;;;;22.17;6.25;;;17.80;99.90;;;;;;5008402;28;20207;-79
2021/08/09 00:08:56;;;;;;;23.33;6.40;;;17.80;99.90;;;;;;5007557;28;20227;-80
2021/08/09 00:11:23;;;;;;;23.88;6.25;;;17.80;99.90;;;;;;5007723;28;20210;-81
2021/08/09 00:13:50;;;;;;;30.73;7.00;;;17.80;99.90;;;;;;5009230;28;20364;-79
2021/08/09 00:16:17;;;;;;;20.45;6.45;;;17.80;99.90;;;;;;4992972;28;20226;-81
2021/08/09 00:18:47;;;;;;;23.70;7.07;;;17.80;99.90;;;;;;4989782;28;20591;-80
2021/08/09 00:21:14;;;;;;;27.10;7.20;;;17.80;99.90;;;;;;5001698;28;20207;-79
2021/08/09 00:23:41;;;;;;;19.75;6.38;;;17.80;99.90;;;;;;5007789;28;20203;-79
2021/08/09 00:26:10;;;;;;;19.48;6.63;;;17.80;99.90;;;;;;5007701;28;20203;-79
2021/08/09 00:28:36;;;;;;;22.73;6.45;;;17.80;99.90;;;;;;5007862;28;20353;-81
2021/08/09 00:31:03;;;;;;;21.52;6.65;;;17.80;99.90;;;;;;5008906;28;20197;-80
2021/08/09 00:33:30;;;;;;;27.45;6.25;;;17.80;99.90;;;;;;4993162;28;20215;-79
2021/08/09 00:35:57;;;;;;;20.92;7.63;;;17.80;99.90;;;;;;4987724;28;20227;-80
2021/08/09 00:38:24;;;;;;;26.92;6.15;;;17.70;99.90;;;;;;4988556;28;20211;-82
2021/08/09 00:40:51;;;;;;;19.23;6.43;;;17.70;99.90;;;;;;5005571;28;20218;-80
2021/08/09 00:43:21;;;;;;;22.90;6.35;;;17.70;99.90;;;;;;5006502;28;20203;-79
2021/08/09 00:45:48;;;;;;;24.00;6.72;;;17.70;99.90;;;;;;5007743;28;20199;-79
2021/08/09 00:48:15;;;;;;;28.38;6.03;;;17.70;99.90;;;;;;5007464;28;20238;-82
2021/08/09 00:50:41;;;;;;;21.15;6.55;;;17.80;99.90;;;;;;5006764;28;20210;-79
2021/08/09 00:53:08;;;;;;;25.60;7.43;;;17.80;99.90;;;;;;5006182;28;20222;-79
2021/08/09 00:55:36;;;;;;;23.00;6.05;;;17.70;99.90;;;;;;5007199;28;20218;-79
2021/08/09 00:58:03;;;;;;;23.67;6.72;;;17.70;99.90;;;;;;5006140;28;20202;-79
2021/08/09 01:00:31;;;;;;;23.65;7.32;;;17.60;99.90;;;;;;5006718;28;20199;-79
2021/08/09 01:02:58;;;;;;;28.55;6.80;;;17.60;99.90;;;;;;4990832;28;20631;-78
2021/08/09 01:05:24;;;;;;;21.85;5.95;;;17.60;99.90;;;;;;4987500;28;20224;-78
2021/08/09 01:08:07;;;;;;;29.23;8.02;;;17.60;99.90;;;;;;4987745;28;20231;-80
2021/08/09 01:10:41;;;;;;;22.38;7.28;;;17.50;99.90;;;;;;4987087;28;20204;-80
2021/08/09 01:13:14;;;;;;;28.88;7.63;;;17.50;99.90;;;;;;4986853;28;20200;-79
2021/08/09 01:15:48;;;;;;;22.92;6.45;;;17.50;99.90;;;;;;4987315;28;20230;-81
2021/08/09 01:18:16;;;;;;;23.38;7.55;;;17.50;99.90;;;;;;4986307;28;20492;-80
2021/08/09 01:20:51;;;;;;;31.90;8.25;;;17.50;99.90;;;;;;4987314;28;20200;-79
2021/08/09 01:23:32;;;;;;;31.85;8.32;;;17.40;99.90;;;;;;4987245;28;20215;-80
2021/08/09 01:26:08;;;;;;;24.88;7.78;;;17.40;99.90;;;;;;4993413;28;20227;-80
2021/08/09 01:28:37;;;;;;;33.95;9.23;;;17.40;99.90;;;;;;4995930;28;20226;-81
2021/08/09 01:31:05;;;;;;;30.13;9.38;;;17.40;99.90;;;;;;4989663;28;20208;-79
2021/08/09 01:33:35;;;;;;;25.80;8.20;;;17.40;99.90;;;;;;4999834;28;20210;-79
2021/08/09 01:36:04;;;;;;;42.00;9.88;;;17.40;99.90;;;;;;5008052;28;20231;-78
2021/08/09 01:38:31;;;;;;;27.98;9.18;;;17.40;99.90;;;;;;5007238;28;20226;-80
2021/08/09 01:40:59;;;;;;;29.52;9.40;;;17.50;99.90;;;;;;5006386;28;20199;-78
2021/08/09 01:43:26;;;;;;;27.25;8.18;;;17.40;99.90;;;;;;4994176;28;20208;-80
2021/08/09 01:45:57;;;;;;;19.70;7.63;;;17.50;99.90;;;;;;4986399;28;20211;-80
2021/08/09 01:48:25;;;;;;;24.52;7.95;;;17.50;99.90;;;;;;4986112;28;20231;-79
2021/08/09 01:50:52;;;;;;;31.80;8.90;;;17.40;99.90;;;;;;4986581;28;20204;-82
2021/08/09 01:53:20;;;;;;;31.15;8.38;;;17.40;99.90;;;;;;4986029;28;20522;-79
2021/08/09 01:55:47;;;;;;;30.33;9.55;;;17.40;99.90;;;;;;4986640;28;20215;-79
2021/08/09 01:58:15;;;;;;;29.27;9.15;;;17.40;99.90;;;;;;4991186;28;20208;-79
2021/08/09 02:00:41;;;;;;;35.20;8.98;;;17.40;99.90;;;;;;5006033;28;20212;-81
2021/08/09 02:03:10;;;;;;;28.83;9.07;;;17.40;99.90;;;;;;5007272;28;20207;-80
2021/08/09 02:05:39;;;;;;;27.10;8.52;;;17.30;99.90;;;;;;4997277;28;20204;-79
2021/08/09 02:08:06;;;;;;;27.77;8.43;;;17.40;99.90;;;;;;4986696;28;20219;-79
2021/08/09 02:10:33;;;;;;;27.50;7.80;;;17.30;99.90;;;;;;4986132;28;20200;-79
2021/08/09 02:13:06;;;;;;;18.08;5.70;;;17.30;99.90;;;;;;4986086;28;20203;-81
2021/08/09 02:15:41;;;;;;;22.25;7.32;;;17.30;99.90;;;;;;4986805;28;20204;-80
2021/08/09 02:18:29;;;;;;;21.92;7.25;;;17.40;99.90;;;;;;4986100;28;20196;-79
2021/08/09 02:21:00;;;;;;;27.80;8.70;;;17.40;99.90;;;;;;4986308;28;20207;-79
2021/08/09 02:23:37;;;;;;;30.60;8.13;;;17.40;99.90;;;;;;5005453;28;20199;-80
2021/08/09 02:26:05;;;;;;;20.98;6.13;;;17.30;99.90;;;;;;4993195;28;20207;-80
2021/08/09 02:28:34;;;;;;;25.90;6.97;;;17.40;99.90;;;;;;4985426;28;20227;-79
2021/08/09 02:31:05;;;;;;;27.30;6.55;;;17.40;99.90;;;;;;4994104;28;20215;-80
2021/08/09 02:33:35;;;;;;;18.55;7.25;;;17.40;99.90;;;;;;5003891;28;20191;-80
2021/08/09 02:36:04;;;;;;;14.13;5.55;;;17.30;99.90;;;;;;5005250;28;20239;-80
2021/08/09 02:38:32;;;;;;;21.63;6.63;;;17.30;99.90;;;;;;5005341;28;20200;-77
2021/08/09 02:41:01;;;;;;;26.27;8.02;;;17.30;99.90;;;;;;4989594;28;20212;-79
2021/08/09 02:43:28;;;;;;;30.05;7.63;;;17.30;99.90;;;;;;4984169;28;20206;-79
2021/08/09 02:45:57;;;;;;;18.15;5.95;;;17.30;99.90;;;;;;4994942;28;20214;-79
2021/08/09 02:48:25;;;;;;;21.90;6.80;;;17.30;99.90;;;;;;5003928;28;20231;-79
2021/08/09 02:50:54;;;;;;;19.55;6.15;;;17.30;99.90;;;;;;5006052;28;20233;-77
2021/08/09 02:53:22;;;;;;;25.73;7.45;;;17.30;99.90;;;;;;5006961;28;20196;-77
2021/08/09 02:55:52;;;;;;;25.23;6.90;;;17.30;99.90;;;;;;4986528;28;20663;-79
2021/08/09 02:58:20;;;;;;;20.83;7.13;;;17.30;99.90;;;;;;4985983;28;20199;-80
2021/08/09 03:00:48;;;;;;;17.65;6.82;;;17.30;99.90;;;;;;4986261;28;20214;-80
2021/08/09 03:03:19;;;;;;;21.70;6.20;;;17.30;99.90;;;;;;4984760;28;20215;-82
2021/08/09 03:05:46;;;;;;;18.90;5.53;;;17.30;99.90;;;;;;4985345;28;20219;-81
2021/08/09 03:08:16;;;;;;;22.50;5.65;;;17.30;99.90;;;;;;4984462;28;20220;-79
2021/08/09 03:10:43;;;;;;;18.52;5.65;;;17.20;99.90;;;;;;4984406;28;20211;-80
2021/08/09 03:13:10;;;;;;;20.85;5.88;;;17.20;99.90;;;;;;4984535;28;20223;-80
2021/08/09 03:15:38;;;;;;;24.48;5.88;;;17.20;99.90;;;;;;4985014;28;20547;-82
2021/08/09 03:18:05;;;;;;;14.68;4.70;;;17.20;99.90;;;;;;4985021;28;20433;-80
2021/08/09 03:20:31;;;;;;;17.98;4.95;;;17.20;99.90;;;;;;4985012;28;20200;-80
2021/08/09 03:22:58;;;;;;;17.67;4.70;;;17.20;99.90;;;;;;4986275;28;20298;-81
2021/08/09 03:25:26;;;;;;;16.90;4.68;;;17.20;99.90;;;;;;4986060;28;20210;-81
2021/08/09 03:27:53;;;;;;;16.42;4.82;;;17.20;99.90;;;;;;4987670;28;20196;-80
2021/08/09 03:30:20;;;;;;;21.02;5.65;;;17.20;99.90;;;;;;4986692;28;20204;-81
2021/08/09 03:32:47;;;;;;;19.35;4.97;;;17.20;99.90;;;;;;4988512;28;20663;-84
2021/08/09 03:35:14;;;;;;;17.50;5.22;;;17.20;99.90;;;;;;4999702;28;20239;-81
2021/08/09 03:37:40;;;;;;;23.60;5.10;;;17.10;99.90;;;;;;5010906;28;20495;-82
2021/08/09 03:40:08;;;;;;;22.30;5.38;;;17.20;99.90;;;;;;4992224;28;20545;-81
2021/08/09 03:42:37;;;;;;;21.55;4.93;;;17.20;99.90;;;;;;4989688;28;20206;-78
2021/08/09 03:45:06;;;;;;;15.23;4.55;;;17.10;99.90;;;;;;4989593;28;20238;-80
2021/08/09 03:47:32;;;;;;;21.70;4.95;;;17.10;99.90;;;;;;4989537;28;20242;-80
2021/08/09 03:50:00;;;;;;;16.35;4.53;;;17.10;99.90;;;;;;4989304;28;20223;-77
2021/08/09 03:52:26;;;;;;;17.35;4.60;;;17.00;99.90;;;;;;4987883;28;20199;-80
2021/08/09 03:54:53;;;;;;;23.20;4.40;;;17.00;99.90;;;;;;5008577;28;20498;-77
2021/08/09 03:57:20;;;;;;;16.92;5.03;;;17.00;99.90;;;;;;5002376;28;20199;-78
2021/08/09 03:59:48;;;;;;;14.68;4.10;;;17.00;99.90;;;;;;4988169;28;20204;-79
2021/08/09 04:02:17;;;;;;;16.45;4.18;;;17.00;99.90;;;;;;4988150;28;20215;-78
2021/08/09 04:04:44;;;;;;;12.30;3.47;;;17.00;99.90;;;;;;4989519;28;20223;-78
2021/08/09 04:07:10;;;;;;;13.90;4.93;;;17.00;99.90;;;;;;4988244;28;20218;-78
2021/08/09 04:09:37;;;;;;;15.85;4.85;;;16.90;99.90;;;;;;4990707;28;20239;-79
2021/08/09 04:12:04;;;;;;;20.00;4.50;;;16.90;99.90;;;;;;4991090;28;20604;-80
2021/08/09 04:14:31;;;;;;;18.95;4.55;;;17.00;99.90;;;;;;4989294;28;20552;-78
2021/08/09 04:16:59;;;;;;;14.57;3.83;;;16.90;99.90;;;;;;4989394;28;20204;-79
2021/08/09 04:19:26;;;;;;;9.65;4.05;;;16.90;99.90;;;;;;4989717;28;20224;-80
2021/08/09 04:21:52;;;;;;;14.90;4.13;;;16.90;99.90;;;;;;4990500;28;20207;-79
2021/08/09 04:24:19;;;;;;;12.35;4.10;;;16.90;99.90;;;;;;4990353;28;20219;-80
2021/08/09 04:26:46;;;;;;;12.50;4.30;;;16.90;99.90;;;;;;4995201;28;20218;-81
2021/08/09 04:29:13;;;;;;;16.00;4.75;;;16.80;99.90;;;;;;5009176;28;20227;-82
2021/08/09 04:31:42;;;;;;;21.60;4.63;;;16.80;99.90;;;;;;5009849;28;20627;-82
2021/08/09 04:34:11;;;;;;;17.58;4.85;;;16.80;99.90;;;;;;4991429;28;20204;-83
2021/08/09 04:36:38;;;;;;;13.52;4.00;;;16.80;99.90;;;;;;4989385;28;20231;-80
2021/08/09 04:39:05;;;;;;;14.85;4.28;;;16.80;99.90;;;;;;5000286;28;20203;-81
2021/08/09 04:41:32;;;;;;;16.45;4.03;;;16.90;99.90;;;;;;5008411;28;20261;-81
2021/08/09 04:43:58;;;;;;;15.05;4.30;;;16.90;99.90;;;;;;5009287;28;20207;-83
2021/08/09 04:46:25;;;;;;;17.70;4.80;;;16.90;99.90;;;;;;5009006;28;20203;-81
2021/08/09 04:48:52;;;;;;;11.63;4.20;;;17.00;99.90;;;;;;5008939;28;20235;-81
2021/08/09 04:51:20;;;;;;;8.43;3.95;;;16.90;99.90;;;;;;5007432;28;20238;-81
2021/08/09 04:53:47;;;;;;;12.00;3.90;;;16.90;99.90;;;;;;4989895;28;20593;-81
2021/08/09 04:56:14;;;;;;;17.20;5.03;;;16.90;99.90;;;;;;4996987;28;20215;-80
2021/08/09 04:58:40;;;;;;;9.70;3.97;;;16.80;99.90;;;;;;5009919;28;20199;-78
2021/08/09 05:01:08;;;;;;;12.70;3.88;;;16.80;99.90;;;;;;5008439;28;20200;-80
2021/08/09 05:03:38;;;;;;;9.50;3.25;;;16.60;99.90;;;;;;5007810;28;20227;-80
2021/08/09 05:06:07;;;;;;;7.15;3.38;;;16.50;99.90;;;;;;5008666;28;20231;-81
2021/08/09 05:08:35;;;;;;;9.48;3.53;;;16.40;99.90;;;;;;5009491;28;20223;-82
2021/08/09 05:11:02;;;;;;;10.00;3.80;;;16.40;99.90;;;;;;4993242;28;20223;-81
2021/08/09 05:13:29;;;;;;;13.65;3.97;;;16.30;99.90;;;;;;4989601;28;20215;-81
2021/08/09 05:15:56;;;;;;;13.65;4.30;;;16.20;99.90;;;;;;4989172;28;20200;-82
2021/08/09 05:18:23;;;;;;;15.48;4.97;;;16.20;99.90;;;;;;4988464;28;20497;-81
2021/08/09 05:20:50;;;;;;;12.98;5.38;;;16.20;99.90;;;;;;4989370;28;20271;-82
2021/08/09 05:23:17;;;;;;;12.65;4.72;;;16.20;99.90;;;;;;4988685;28;20192;-81
2021/08/09 05:25:45;;;;;;;16.10;5.60;;;16.20;99.90;;;;;;4990690;28;20211;-81
2021/08/09 05:28:12;;;;;;;12.23;4.57;;;16.10;99.90;;;;;;4989456;28;20417;-80
2021/08/09 05:30:39;;;;;;;15.80;6.43;;;16.10;99.90;;;;;;4989385;28;20786;-84
2021/08/09 05:33:06;;;;;;;16.58;5.25;;;16.10;99.90;;;;;;4989054;28;20663;-80
2021/08/09 05:35:33;;;;;;;18.90;5.32;;;16.00;99.90;;;;;;4988687;28;20246;-82
2021/08/09 05:38:00;;;;;;;13.70;4.78;;;16.00;99.90;;;;;;4987560;28;20204;-80
2021/08/09 05:40:26;;;;;;;23.58;6.47;;;16.00;99.90;;;;;;4987532;28;20202;-80
2021/08/09 05:42:55;;;;;;;18.20;5.37;;;15.90;99.90;;;;;;4987289;28;20303;-81
2021/08/09 05:45:22;;;;;;;19.50;6.15;;;15.90;99.90;;;;;;4986010;28;20200;-80
2021/08/09 05:47:49;;;;;;;16.45;6.22;;;15.90;99.90;;;;;;4987736;28;20215;-81
2021/08/09 05:50:16;;;;;;;15.55;4.65;;;15.80;99.90;;;;;;4986547;28;20228;-80
2021/08/09 05:52:42;;;;;;;11.00;5.45;;;15.80;99.90;;;;;;4986773;28;20235;-81
2021/08/09 05:55:10;;;;;;;11.55;4.57;;;15.90;99.90;;;;;;4986396;28;20203;-80
2021/08/09 05:57:37;;;;;;;12.52;4.97;;;15.90;99.90;;;;;;4986431;28;20235;-80
2021/08/09 06:00:07;;;;;;;13.27;5.05;;;15.90;99.90;;;;;;4986186;28;20215;-79
2021/08/09 06:02:40;;;;;;;13.73;5.63;;;15.90;99.90;;;;;;4985537;28;20214;-80
2021/08/09 06:05:08;;;;;;;16.52;5.78;;;16.00;99.90;;;;;;4985694;28;20232;-80
2021/08/09 06:07:35;;;;;;;13.25;5.32;;;15.90;99.90;;;;;;4986574;28;20623;-80
2021/08/09 06:10:02;;;;;;;20.27;6.00;;;16.00;99.90;;;;;;4986875;28;20219;-81
2021/08/09 06:12:29;;;;;;;21.33;5.40;;;16.00;99.90;;;;;;4986776;28;20200;-78
2021/08/09 06:14:55;;;;;;;14.38;5.40;;;16.00;99.90;;;;;;4986865;28;20508;-80
2021/08/09 06:17:23;;;;;;;13.60;5.68;;;16.00;99.90;;;;;;4987459;28;20219;-79
2021/08/09 06:19:50;;;;;;;14.95;4.78;;;16.00;99.90;;;;;;4986791;28;20196;-80
2021/08/09 06:22:17;;;;;;;17.10;4.60;;;16.00;99.90;;;;;;4986759;28;20310;-79
2021/08/09 06:24:44;;;;;;;16.75;4.80;;;16.00;99.90;;;;;;4986825;28;20562;-82
2021/08/09 06:27:10;;;;;;;15.48;4.68;;;16.00;99.90;;;;;;4987064;28;20211;-80
2021/08/09 06:29:37;;;;;;;13.63;4.53;;;16.00;99.90;;;;;;4987107;28;20222;-80
2021/08/09 06:32:04;;;;;;;18.55;5.53;;;16.00;99.90;;;;;;4996786;28;20207;-79
2021/08/09 06:34:32;;;;;;;17.00;4.72;;;16.10;99.90;;;;;;5007100;28;20199;-79
2021/08/09 06:37:00;;;;;;;10.30;4.10;;;16.10;99.90;;;;;;4987276;28;20915;-82
2021/08/09 06:39:26;;;;;;;14.38;5.22;;;16.10;99.90;;;;;;4989115;28;20203;-80
2021/08/09 06:41:54;;;;;;;11.50;4.50;;;16.20;99.90;;;;;;5023685;28;20416;-81
2021/08/09 06:44:21;;;;;;;13.90;4.85;;;16.40;99.90;;;;;;5014668;28;20699;-81
2021/08/09 06:46:48;;;;;;;16.45;5.93;;;16.40;99.90;;;;;;5008113;28;20234;-82
2021/08/09 06:49:15;;;;;;;12.88;4.43;;;16.50;99.90;;;;;;5008387;28;20266;-83
2021/08/09 06:51:43;;;;;;;11.70;4.57;;;16.60;99.90;;;;;;5008998;28;20199;-80
2021/08/09 06:54:10;;;;;;;13.88;4.32;;;16.90;99.90;;;;;;5007949;28;20509;-79
2021/08/09 06:56:37;;;;;;;10.70;4.40;;;17.10;99.90;;;;;;4989349;28;20246;-80
2021/08/09 06:59:03;;;;;;;14.88;4.32;;;17.30;99.90;;;;;;4988108;28;20212;-82
2021/08/09 07:01:30;;;;;;;8.50;3.70;;;17.50;99.90;;;;;;4987736;28;20200;-81
2021/08/09 07:03:57;;;;;;;10.27;3.97;;;17.70;99.90;;;;;;4986293;28;20224;-83
2021/08/09 07:06:24;;;;;;;13.00;4.28;;;17.80;99.90;;;;;;4987619;28;20659;-84
2021/08/09 07:08:54;;;;;;;10.73;3.85;;;18.00;99.90;;;;;;4987253;28;20203;-82
2021/08/09 07:11:22;;;;;;;17.75;3.85;;;18.30;99.90;;;;;;4988652;28;20219;-81
2021/08/09 07:13:50;;;;;;;8.35;3.65;;;18.50;99.90;;;;;;5003755;28;20225;-80
2021/08/09 07:16:18;;;;;;;10.15;2.95;;;18.80;99.90;;;;;;5030026;28;20198;-82
2021/08/09 07:18:45;;;;;;;12.77;3.42;;;19.10;99.90;;;;;;5011810;28;20212;-82
2021/08/09 07:21:12;;;;;;;8.10;2.85;;;19.40;99.90;;;;;;4987772;28;20204;-81
2021/08/09 07:23:39;;;;;;;11.65;3.00;;;19.60;99.90;;;;;;4987666;28;20207;-81
2021/08/09 07:32:58;;;;;;;9.75;3.15;;;19.80;99.90;;;;;;4861973;28;20831;-79
2021/08/09 07:35:25;;;;;;;11.43;3.05;;;19.70;99.90;;;;;;4981040;28;20330;-80
2021/08/09 07:37:53;;;;;;;9.70;2.75;;;19.70;99.90;;;;;;4985220;28;20206;-80
2021/08/09 07:40:20;;;;;;;9.10;2.42;;;19.70;99.90;;;;;;4985484;28;20203;-78
2021/08/09 07:42:47;;;;;;;12.73;3.30;;;19.90;99.90;;;;;;4985030;28;20208;-81
2021/08/09 07:45:13;;;;;;;4.00;2.35;;;19.90;99.90;;;;;;4984424;28;20211;-81
2021/08/09 07:47:58;;;;;;;8.82;2.83;;;19.80;99.90;;;;;;4978368;28;20530;-82
2021/08/09 07:50:25;;;;;;;8.10;2.30;;;19.70;99.90;;;;;;4984878;28;20673;-78
2021/08/09 07:52:52;;;;;;;9.30;3.40;;;19.60;99.90;;;;;;4984382;28;20208;-80
2021/08/09 07:55:19;;;;;;;6.15;2.42;;;19.50;99.90;;;;;;5004514;28;20230;-78
2021/08/09 07:57:45;;;;;;;8.82;2.45;;;19.50;99.90;;;;;;5005722;28;20245;-80
2021/08/09 08:00:14;;;;;;;15.95;2.80;;;19.40;99.90;;;;;;5004437;28;20219;-79
2021/08/09 08:02:41;;;;;;;7.10;2.30;;;19.10;99.90;;;;;;5004287;28;20214;-80
2021/08/09 08:05:10;;;;;;;8.27;2.75;;;19.00;99.90;;;;;;4985026;28;20908;-78
2021/08/09 08:07:37;;;;;;;8.20;2.20;;;18.80;99.90;;;;;;4989772;28;20215;-79
2021/08/09 08:10:04;;;;;;;9.27;2.10;;;18.80;99.90;;;;;;4992319;28;20226;-80
2021/08/09 08:12:31;;;;;;;8.57;2.13;;;18.80;99.90;;;;;;5001916;28;20203;-79
2021/08/09 08:14:58;;;;;;;9.23;3.03;;;18.90;99.90;;;;;;5003477;28;20195;-80
2021/08/09 08:17:25;;;;;;;8.95;2.38;;;18.90;99.90;;;;;;5004660;28;20575;-78
2021/08/09 08:19:52;;;;;;;9.98;2.85;;;18.90;99.90;;;;;;5002115;28;20805;-80
2021/08/09 08:22:20;;;;;;;8.45;2.45;;;18.90;99.90;;;;;;5007297;28;20218;-78
2021/08/09 08:24:47;;;;;;;8.88;2.85;;;18.80;99.90;;;;;;5007290;28;20207;-79
2021/08/09 08:27:14;;;;;;;12.00;2.90;;;18.70;99.90;;;;;;5006701;28;20211;-79
2021/08/09 08:29:40;;;;;;;6.80;2.45;;;18.50;99.90;;;;;;4988270;28;20230;-79
2021/08/09 08:32:08;;;;;;;8.70;1.98;;;18.30;99.90;;;;;;4988436;28;20211;-79
2021/08/09 08:34:35;;;;;;;6.35;1.98;;;18.20;99.90;;;;;;4987341;28;20208;-79
2021/08/09 08:37:02;;;;;;;4.50;2.03;;;18.00;99.90;;;;;;4988066;28;20278;-79
2021/08/09 08:39:30;;;;;;;5.47;2.20;;;17.90;99.90;;;;;;4987888;28;20215;-79
2021/08/09 08:41:58;;;;;;;3.47;1.65;;;17.80;99.90;;;;;;5004702;28;20215;-79
2021/08/09 08:44:25;;;;;;;5.63;2.03;;;17.90;99.90;;;;;;5006974;28;20200;-78
2021/08/09 08:46:54;;;;;;;7.47;2.70;;;17.90;99.90;;;;;;5007288;28;20214;-79
2021/08/09 08:49:23;;;;;;;6.18;2.17;;;18.10;99.90;;;;;;4992361;28;20227;-78
2021/08/09 08:51:50;;;;;;;5.95;2.28;;;18.40;99.90;;;;;;4991367;28;20586;-78
2021/08/09 08:54:17;;;;;;;7.75;2.20;;;18.50;99.90;;;;;;5003293;28;20218;-78
2021/08/09 08:56:47;;;;;;;3.92;2.17;;;18.50;99.90;;;;;;4987157;28;20219;-78
2021/08/09 08:59:15;;;;;;;7.65;2.17;;;18.60;99.90;;;;;;4985940;28;20598;-79
2021/08/09 09:01:43;;;;;;;14.15;3.20;;;18.60;99.90;;;;;;4986292;28;20203;-79
2021/08/09 09:04:32;;;;;;;6.75;2.40;;;18.60;99.90;;;;;;4986115;28;20488;-79
2021/08/09 09:07:01;;;;;;;11.10;2.15;;;18.50;99.90;;;;;;4983417;28;20242;-79
2021/08/09 09:09:29;;;;;;;11.63;2.28;;;18.50;99.90;;;;;;4987032;28;20204;-79
2021/08/09 09:12:00;;;;;;;6.30;2.35;;;18.60;99.90;;;;;;4985777;28;20215;-79
2021/08/09 09:14:30;;;;;;;5.55;2.20;;;18.70;99.90;;;;;;5006383;28;20199;-80
2021/08/09 09:16:58;;;;;;;6.55;2.60;;;18.90;99.90;;;;;;5003413;28;20207;-79
2021/08/09 09:19:34;;;;;;;6.63;2.38;;;18.90;99.90;;;;;;4996600;28;20214;-80
2021/08/09 09:22:01;;;;;;;6.93;2.50;;;19.00;99.90;;;;;;5025882;28;20194;-77
2021/08/09 09:24:28;;;;;;;7.60;2.30;;;19.10;99.90;;;;;;5025741;28;20190;-79
2021/08/09 09:26:58;;;;;;;7.20;2.60;;;19.20;99.90;;;;;;5010609;28;20513;-79
2021/08/09 09:29:27;;;;;;;8.43;2.42;;;19.40;99.90;;;;;;4985628;28;20608;-78
2021/08/09 09:31:54;;;;;;;4.88;2.20;;;19.60;99.90;;;;;;4986715;28;20841;-79
2021/08/09 09:34:23;;;;;;;6.03;2.45;;;19.80;99.90;;;;;;4986260;28;20221;-80
2021/08/09 09:36:52;;;;;;;5.60;2.83;;;19.80;99.90;;;;;;4999139;28;20262;-79
2021/08/09 09:39:33;;;;;;;9.23;2.70;;;19.90;99.90;;;;;;5007325;28;20200;-80
2021/08/09 09:42:03;;;;;;;7.65;2.10;;;20.10;99.90;;;;;;4988705;28;20199;-80
2021/08/09 09:44:32;;;;;;;5.57;2.10;;;20.20;99.90;;;;;;4985922;28;20310;-78
2021/08/09 09:47:32;;;;;;;7.18;2.05;;;20.20;99.90;;;;;;5000666;28;20747;-79
2021/08/09 09:50:00;;;;;;;4.85;2.08;;;20.20;99.90;;;;;;4944489;29;20216;-80
2021/08/09 09:52:33;;;;;;;9.50;2.75;;;20.30;99.90;;;;;;4945181;29;20984;-80
2021/08/09 09:55:00;;;;;;;7.70;2.10;;;20.10;99.90;;;;;;4974643;28;20215;-81
2021/08/09 09:57:29;;;;;;;4.53;2.05;;;20.00;99.90;;;;;;5006500;28;20199;-80
2021/08/09 09:59:58;;;;;;;5.50;2.17;;;19.90;99.90;;;;;;5006467;28;20599;-81
2021/08/09 10:02:25;;;;;;;6.00;2.30;;;19.90;99.90;;;;;;5000930;28;20270;-80
2021/08/09 10:04:52;;;;;;;4.68;2.15;;;19.90;99.90;;;;;;4986220;28;20224;-78
2021/08/09 10:07:22;;;;;;;8.77;2.42;;;19.90;99.90;;;;;;4986577;28;20278;-79
2021/08/09 10:09:51;;;;;;;7.22;2.22;;;19.90;99.90;;;;;;4986654;28;20566;-80
2021/08/09 10:12:22;;;;;;;5.85;2.30;;;20.00;99.90;;;;;;4986759;28;20211;-81
2021/08/09 10:14:53;;;;;;;5.50;2.20;;;20.00;99.90;;;;;;4987415;28;20206;-79
2021/08/09 10:17:20;;;;;;;6.03;2.13;;;20.00;99.90;;;;;;4987027;28;20581;-81
2021/08/09 10:19:49;;;;;;;7.78;3.08;;;20.00;99.90;;;;;;4986046;28;20913;-81
2021/08/09 10:22:18;;;;;;;6.78;2.60;;;20.00;99.90;;;;;;4986167;28;20195;-80
2021/08/09 10:24:45;;;;;;;4.43;2.28;;;20.00;99.90;;;;;;5005937;28;20933;-80
2021/08/09 10:27:13;;;;;;;4.50;1.88;;;20.00;99.90;;;;;;5004369;28;20207;-81
2021/08/09 10:30:16;;;;;;;3.67;2.00;;;20.00;99.90;;;;;;4985995;28;20203;-82
2021/08/09 10:32:45;;;;;;;4.80;1.83;;;20.00;99.90;;;;;;4995029;28;20217;-80
2021/08/09 10:36:04;;;;;;;6.30;2.58;;;20.00;99.90;;;;;;5004982;28;20223;-80
2021/08/09 10:38:44;;;;;;;2.47;1.67;;;20.10;99.90;;;;;;4991066;28;20629;-78
2021/08/09 10:41:52;;;;;;;6.30;2.40;;;20.00;99.90;;;;;;4987960;28;20587;-79
2021/08/09 10:44:28;;;;;;;5.38;2.15;;;20.00;99.90;;;;;;4988811;28;20204;-81
2021/08/09 10:46:57;;;;;;;5.85;2.10;;;19.90;99.90;;;;;;4992870;28;20210;-80
2021/08/09 10:49:52;;;;;;;4.15;1.80;;;20.00;99.90;;;;;;5006837;28;20211;-79
2021/08/09 10:52:35;;;;;;;4.22;1.90;;;20.10;99.90;;;;;;4998504;28;20231;-78
2021/08/09 10:55:45;;;;;;;3.30;1.70;;;20.20;99.90;;;;;;5003726;28;20215;-79
2021/08/09 10:58:45;;;;;;;4.15;2.00;;;20.30;99.90;;;;;;5006068;28;20242;-82
2021/08/09 11:01:13;;;;;;;3.33;1.88;;;20.50;99.90;;;;;;4995571;28;20212;-78
2021/08/09 11:04:15;;;;;;;2.70;1.60;;;20.60;99.90;;;;;;5000578;28;20227;-81
2021/08/09 11:06:51;;;;;;;5.43;2.05;;;20.70;99.90;;;;;;5005341;28;20273;-80
2021/08/09 11:09:43;;;;;;;3.65;1.73;;;20.70;99.90;;;;;;5004684;28;20203;-80
2021/08/09 11:12:20;;;;;;;4.15;1.85;;;20.50;99.90;;;;;;4985871;28;20243;-79
2021/08/09 11:15:26;;;;;;;3.85;1.63;;;20.50;99.90;;;;;;4984974;28;20863;-79
2021/08/09 11:17:55;;;;;;;3.97;1.85;;;20.60;99.90;;;;;;4985028;28;20204;-80
2021/08/09 11:20:27;;;;;;;3.75;1.70;;;20.60;99.90;;;;;;4985223;28;20200;-78
2021/08/09 11:23:03;;;;;;;2.78;1.60;;;20.60;99.90;;;;;;4984581;28;20192;-80
2021/08/09 11:25:32;;;;;;;4.50;1.67;;;20.80;99.90;;;;;;4990401;28;20206;-80
2021/08/09 11:28:08;;;;;;;3.75;1.80;;;21.10;99.90;;;;;;5004390;28;20207;-87
2021/08/09 11:30:37;;;;;;;2.67;1.65;;;21.30;99.90;;;;;;4989238;28;20231;-81
2021/08/09 11:33:05;;;;;;;6.50;1.90;;;21.50;99.90;;;;;;4984971;28;20211;-79
2021/08/09 11:35:42;;;;;;;2.50;1.70;;;21.40;99.90;;;;;;4984605;28;20243;-79
2021/08/09 11:38:09;;;;;;;4.65;2.92;;;21.30;99.90;;;;;;4984617;28;20601;-81
2021/08/09 11:40:41;;;;;;;3.75;1.92;;;21.20;99.90;;;;;;4985298;28;20196;-80
2021/08/09 11:43:09;;;;;;;3.47;1.50;;;21.10;99.90;;;;;;4983917;28;20219;-79
2021/08/09 11:45:37;;;;;;;2.35;1.77;;;21.00;99.90;;;;;;4992280;28;20203;-81
2021/08/09 11:48:05;;;;;;;3.15;1.50;;;20.90;99.90;;;;;;5004670;28;20214;-80
2021/08/09 11:50:39;;;;;;;3.17;1.35;;;21.10;99.90;;;;;;5020122;28;20225;-81
2021/08/09 11:53:07;;;;;;;2.75;1.30;;;21.40;99.90;;;;;;5004017;28;20218;-80
2021/08/09 11:55:34;;;;;;;3.30;1.38;;;21.50;99.90;;;;;;5007764;28;20214;-81
2021/08/09 11:58:01;;;;;;;3.92;1.42;;;21.70;99.90;;;;;;5008061;28;20203;-81
2021/08/09 12:00:40;;;;;;;2.38;1.45;;;21.80;99.90;;;;;;5007079;28;20215;-79
2021/08/09 12:03:10;;;;;;;6.35;4.15;;;21.60;99.90;;;;;;5003383;28;20207;-79
2021/08/09 12:05:39;;;;;;;11.07;5.50;;;21.40;99.90;;;;;;5021203;28;20706;-79
2021/08/09 12:08:07;;;;;;;2.13;1.25;;;21.20;99.90;;;;;;4999647;28;20434;-79
2021/08/09 12:10:35;;;;;;;2.90;1.40;;;21.20;99.90;;;;;;4988204;28;20528;-79
2021/08/09 12:13:02;;;;;;;2.50;1.23;;;21.00;99.90;;;;;;4988623;28;20207;-79
2021/08/09 12:15:29;;;;;;;5.68;2.10;;;20.90;99.90;;;;;;4989007;28;20219;-79
2021/08/09 12:18:06;;;;;;;3.88;1.30;;;20.80;99.90;;;;;;5007510;28;20215;-80
2021/08/09 12:20:34;;;;;;;3.28;1.42;;;20.70;99.90;;;;;;5008094;28;20214;-80
2021/08/09 12:23:03;;;;;;;3.80;1.40;;;20.60;99.90;;;;;;5013700;28;20214;-79
2021/08/09 12:25:37;;;;;;;4.40;1.77;;;20.40;99.90;;;;;;5015660;28;20219;-81
2021/08/09 12:28:06;;;;;;;4.45;1.80;;;20.40;99.90;;;;;;4992647;28;20212;-78
2021/08/09 12:30:51;;;;;;;6.55;1.70;;;20.10;99.90;;;;;;4989099;28;20246;-79
2021/08/09 12:33:18;;;;;;;3.20;1.50;;;20.20;99.90;;;;;;4995821;28;20701;-80
2021/08/09 12:35:49;;;;;;;2.47;1.63;;;20.20;99.90;;;;;;5012156;28;20268;-80
2021/08/09 12:38:17;;;;;;;14.05;9.48;;;20.30;99.90;;;;;;5026294;28;20214;-79
2021/08/09 12:40:45;;;;;;;5.05;2.15;;;20.30;99.90;;;;;;5011660;28;20219;-79
2021/08/09 12:43:14;;;;;;;3.58;2.13;;;20.40;99.90;;;;;;5006384;28;20223;-79
2021/08/09 12:45:42;;;;;;;4.18;1.55;;;20.40;99.90;;;;;;4987374;28;20207;-77
2021/08/09 12:48:09;;;;;;;5.80;1.80;;;20.40;99.90;;;;;;4988045;28;20211;-80
2021/08/09 12:50:37;;;;;;;4.47;1.63;;;20.60;99.90;;;;;;4989823;28;20215;-79
2021/08/09 12:53:04;;;;;;;6.10;1.92;;;20.60;99.90;;;;;;5007796;28;20207;-77
2021/08/09 12:55:33;;;;;;;6.32;2.47;;;20.70;99.90;;;;;;5006729;28;20195;-80
2021/08/09 12:58:00;;;;;;;5.55;1.80;;;20.80;99.90;;;;;;5007265;28;20211;-80
2021/08/09 13:00:27;;;;;;;4.28;1.80;;;20.80;99.90;;;;;;4994578;28;20212;-80